createdAt,value
2023-03-21T00:02:17.617Z,27.10
2023-03-21T00:06:17.773Z,26.54
2023-03-21T00:14:18.977Z,27.16
2023-03-21T00:18:18.213Z,25.81
2023-03-21T00:22:20.684Z,27.20
2023-03-21T00:26:17.778Z,27.04
2023-03-21T00:30:17.793Z,27.42
2023-03-21T00:34:22.774Z,25.54
2023-03-21T00:38:18.777Z,26.92
2023-03-21T00:42:17.733Z,26.54
2023-03-21T00:46:18.676Z,27.29
2023-03-21T00:50:18.294Z,25.88
2023-03-21T00:54:18.567Z,28.21
2023-03-21T00:58:19.363Z,25.67
2023-03-21T01:02:18.672Z,27.16
2023-03-21T01:06:18.758Z,28.12
2023-03-21T01:10:18.823Z,28.21
2023-03-21T01:14:22.917Z,26.48
2023-03-21T01:18:18.970Z,28.77
2023-03-21T01:22:18.958Z,29.22
2023-03-21T01:26:18.892Z,27.10
2023-03-21T01:30:21.650Z,26.98
2023-03-21T01:34:18.871Z,27.24
2023-03-21T01:38:18.836Z,27.82
2023-03-21T01:42:18.813Z,27.71
2023-03-21T01:46:18.802Z,26.83
2023-03-21T01:50:18.760Z,28.98
2023-03-21T01:54:19.244Z,27.70
2023-03-21T01:58:19.262Z,27.87
2023-03-21T02:02:19.298Z,27.73
2023-03-21T02:06:19.254Z,28.16
2023-03-21T02:10:19.515Z,27.03
2023-03-21T02:14:28.358Z,28.78
2023-03-21T02:18:20.396Z,29.25
2023-03-21T02:22:19.333Z,27.61
2023-03-21T02:26:19.521Z,27.04
2023-03-21T02:30:28.051Z,28.31
2023-03-21T02:34:20.496Z,29.97
2023-03-21T02:38:19.548Z,27.61
2023-03-21T02:42:20.664Z,26.58
2023-03-21T02:46:19.571Z,28.30
2023-03-21T02:50:19.507Z,25.69
2023-03-21T02:54:32.573Z,27.03
2023-03-21T02:58:20.436Z,27.35
2023-03-21T03:02:19.385Z,27.53
2023-03-21T03:06:19.353Z,28.00
2023-03-21T03:10:19.393Z,25.75
2023-03-21T03:14:40.046Z,27.16
2023-03-21T03:18:20.255Z,28.02
2023-03-21T03:22:19.202Z,28.90
2023-03-21T03:26:19.418Z,26.11
2023-03-21T03:30:19.493Z,28.86
2023-03-21T03:34:19.316Z,26.13
2023-03-21T03:38:19.338Z,25.29
2023-03-21T03:42:27.924Z,27.74
2023-03-21T03:46:20.278Z,24.44
2023-03-21T03:50:19.225Z,26.66
2023-03-21T03:54:19.482Z,26.84
2023-03-21T03:58:24.058Z,27.27
2023-03-21T04:02:20.812Z,26.89
2023-03-21T04:06:19.404Z,27.16
2023-03-21T04:10:19.540Z,27.76
2023-03-21T04:14:19.478Z,26.72
2023-03-21T04:18:19.423Z,27.96
2023-03-21T04:22:19.361Z,27.84
2023-03-21T04:26:19.323Z,27.23
2023-03-21T04:30:21.231Z,31.95
2023-03-21T04:34:19.273Z,27.96
2023-03-21T04:38:19.281Z,30.06
2023-03-21T04:42:19.287Z,29.72
2023-03-21T04:46:19.244Z,28.46
2023-03-21T04:50:19.202Z,27.21
2023-03-21T04:54:19.173Z,27.93
2023-03-21T04:58:19.084Z,28.63
2023-03-21T05:02:19.060Z,29.45
2023-03-21T05:06:19.244Z,27.12
2023-03-21T05:10:19.048Z,29.22
2023-03-21T05:14:18.990Z,27.14
2023-03-21T05:18:19.224Z,27.70
2023-03-21T05:22:19.075Z,28.97
2023-03-21T05:26:19.253Z,27.58
2023-03-21T05:30:19.018Z,29.05
2023-03-21T05:34:19.002Z,31.48
2023-03-21T05:38:18.929Z,33.40
2023-03-21T05:42:18.876Z,38.57
2023-03-21T05:46:18.941Z,37.71
2023-03-21T05:50:18.824Z,40.70
2023-03-21T05:54:18.799Z,36.32
2023-03-21T05:58:18.774Z,37.65
2023-03-21T06:02:18.777Z,37.05
2023-03-21T06:06:18.678Z,35.89
2023-03-21T06:10:18.686Z,35.47
2023-03-21T06:14:19.778Z,32.55
2023-03-21T06:18:18.591Z,39.26
2023-03-21T06:22:18.812Z,34.87
2023-03-21T06:26:18.480Z,31.93
2023-03-21T06:30:18.539Z,36.16
2023-03-21T06:34:18.693Z,28.35
2023-03-21T06:38:18.562Z,33.06
2023-03-21T06:42:18.365Z,31.68
2023-03-21T06:46:18.552Z,27.94
2023-03-21T06:50:18.884Z,26.04
2023-03-21T06:54:19.006Z,39.57
2023-03-21T06:58:18.456Z,26.86
2023-03-21T07:02:18.352Z,24.70
2023-03-21T07:06:18.418Z,40.02
2023-03-21T07:10:19.487Z,40.49
2023-03-21T07:14:18.297Z,76.05
2023-03-21T07:18:18.532Z,46.47
2023-03-21T07:22:18.890Z,50.89
2023-03-21T07:26:18.514Z,62.04
2023-03-21T07:30:18.341Z,62.21
2023-03-21T07:34:18.429Z,73.60
2023-03-21T07:38:18.295Z,66.40
2023-03-21T07:42:18.272Z,71.22
2023-03-21T07:46:18.892Z,78.39
2023-03-21T07:50:18.330Z,73.22
2023-03-21T07:54:18.174Z,65.86
2023-03-21T07:58:18.101Z,67.56
2023-03-21T08:02:18.137Z,61.11
2023-03-21T08:06:18.235Z,64.96
2023-03-21T08:10:18.068Z,57.33
2023-03-21T08:14:17.980Z,48.99
2023-03-21T08:18:17.959Z,47.86
2023-03-21T08:22:17.974Z,65.88
2023-03-21T08:26:17.851Z,52.71
2023-03-21T08:30:18.371Z,67.64
2023-03-21T08:34:17.923Z,63.27
2023-03-21T08:38:19.320Z,74.20
2023-03-21T08:42:17.843Z,81.43
2023-03-21T08:46:17.802Z,83.57
2023-03-21T08:50:17.607Z,86.14
2023-03-21T08:54:17.600Z,139.35
2023-03-21T08:58:17.825Z,213.60
2023-03-21T09:02:17.819Z,250.00
2023-03-21T09:06:17.781Z,250.00
2023-03-21T09:10:22.313Z,240.87
2023-03-21T09:14:18.375Z,237.62
2023-03-21T09:18:17.697Z,247.56
2023-03-21T09:22:17.888Z,248.40
2023-03-21T09:26:18.550Z,231.48
2023-03-21T09:30:17.591Z,204.50
2023-03-21T09:34:17.594Z,176.19
2023-03-21T09:38:17.876Z,154.89
2023-03-21T09:42:17.838Z,105.21
2023-03-21T09:46:17.908Z,98.51
2023-03-21T09:50:17.807Z,88.84
2023-03-21T09:54:17.762Z,86.00
2023-03-21T09:58:17.826Z,80.64
2023-03-21T10:02:17.776Z,76.41
2023-03-21T10:06:17.826Z,76.34
2023-03-21T10:10:18.356Z,63.04
2023-03-21T10:14:19.355Z,59.36
2023-03-21T10:18:17.745Z,59.66
2023-03-21T10:22:18.497Z,53.11
2023-03-21T10:26:20.331Z,47.17
2023-03-21T10:30:20.153Z,43.50
2023-03-21T10:34:17.980Z,38.59
2023-03-21T10:38:18.922Z,34.48
2023-03-21T10:42:18.091Z,25.00
2023-03-21T10:46:18.193Z,20.37
2023-03-21T10:50:18.243Z,35.23
2023-03-21T10:54:18.897Z,28.56
2023-03-21T10:58:18.150Z,31.00
2023-03-21T11:02:18.190Z,25.04
2023-03-21T11:06:18.390Z,30.35
2023-03-21T11:10:28.113Z,28.20
2023-03-21T11:14:19.244Z,23.43
2023-03-21T11:18:18.196Z,26.89
2023-03-21T11:22:18.212Z,24.86
2023-03-21T11:26:18.225Z,46.00
2023-03-21T11:30:18.145Z,54.75
2023-03-21T11:34:18.109Z,64.45
2023-03-21T11:38:18.168Z,68.63
2023-03-21T11:42:18.463Z,70.83
2023-03-21T11:46:18.378Z,71.35
2023-03-21T11:50:20.957Z,74.67
2023-03-21T11:54:18.334Z,77.84
2023-03-21T11:58:18.283Z,77.45
2023-03-21T12:02:18.322Z,78.47
2023-03-21T12:06:18.189Z,79.21
2023-03-21T12:10:18.167Z,80.83
2023-03-21T12:14:18.134Z,79.54
2023-03-21T12:18:18.103Z,81.97
2023-03-21T12:22:18.144Z,81.57
2023-03-21T12:26:18.064Z,83.62
2023-03-21T12:30:19.021Z,84.65
2023-03-21T12:34:17.947Z,84.36
2023-03-21T12:38:17.923Z,85.10
2023-03-21T12:42:17.881Z,84.72
2023-03-21T12:46:17.987Z,84.75
2023-03-21T12:50:18.432Z,84.47
2023-03-21T12:54:17.733Z,85.60
2023-03-21T12:58:17.767Z,84.68
2023-03-21T13:02:17.762Z,85.38
2023-03-21T13:06:19.978Z,86.35
2023-03-21T13:10:17.786Z,85.38
2023-03-21T13:14:17.865Z,85.60
2023-03-21T13:18:18.047Z,84.93
2023-03-21T13:22:18.679Z,90.61
2023-03-21T13:26:19.616Z,100.28
2023-03-21T13:30:18.376Z,108.07
2023-03-21T13:34:18.297Z,112.59
2023-03-21T13:38:26.211Z,113.34
2023-03-21T13:42:18.170Z,92.57
2023-03-21T13:46:18.249Z,93.23
2023-03-21T13:50:21.421Z,82.52
2023-03-21T13:54:18.873Z,73.94
2023-03-21T13:58:18.036Z,83.84
2023-03-21T14:02:18.576Z,83.77
2023-03-21T14:06:18.034Z,74.60
2023-03-21T14:10:17.954Z,83.33
2023-03-21T14:14:17.919Z,84.35
2023-03-21T14:18:28.014Z,92.21
2023-03-21T14:22:18.898Z,70.91
2023-03-21T14:26:17.775Z,69.39
2023-03-21T14:30:17.743Z,49.23
2023-03-21T14:34:17.770Z,44.14
2023-03-21T14:38:21.047Z,42.15
2023-03-21T14:42:17.814Z,36.56
2023-03-21T14:46:17.811Z,57.11
2023-03-21T14:50:22.573Z,61.89
2023-03-21T14:54:20.091Z,63.69
2023-03-21T14:58:17.747Z,77.01
2023-03-21T15:02:17.745Z,83.97
2023-03-21T15:06:17.694Z,88.05
2023-03-21T15:10:17.705Z,87.58
2023-03-21T15:14:17.543Z,89.18
2023-03-21T15:18:17.505Z,87.26
2023-03-21T15:22:17.438Z,87.80
2023-03-21T15:26:17.506Z,88.42
2023-03-21T15:30:17.372Z,87.57
2023-03-21T15:34:17.508Z,87.03
2023-03-21T15:38:17.266Z,87.57
2023-03-21T15:42:17.309Z,86.63
2023-03-21T15:46:17.289Z,87.29
2023-03-21T15:50:17.251Z,87.81
2023-03-21T15:54:17.162Z,87.70
2023-03-21T15:58:17.149Z,87.55
2023-03-21T16:02:17.151Z,87.07
2023-03-21T16:06:18.003Z,89.27
2023-03-21T16:10:17.207Z,86.92
2023-03-21T16:14:17.460Z,89.03
2023-03-21T16:18:17.576Z,88.21
2023-03-21T16:22:17.619Z,86.20
2023-03-21T16:26:17.806Z,87.26
2023-03-21T16:30:17.862Z,86.15
2023-03-21T16:34:18.107Z,86.47
2023-03-21T16:38:18.212Z,86.46
2023-03-21T16:42:18.494Z,85.65
2023-03-21T16:46:19.552Z,87.11
2023-03-21T16:50:18.780Z,86.15
2023-03-21T16:54:19.505Z,86.08
2023-03-21T16:58:19.609Z,86.19
2023-03-21T17:02:19.229Z,86.21
2023-03-21T17:06:19.417Z,86.78
2023-03-21T17:10:19.653Z,85.22
2023-03-21T17:14:19.775Z,86.20
2023-03-21T17:18:20.090Z,85.72
2023-03-21T17:22:20.205Z,85.76
2023-03-21T17:26:20.355Z,86.55
2023-03-21T17:30:20.690Z,83.54
2023-03-21T17:34:20.604Z,85.27
2023-03-21T17:38:20.623Z,81.38
2023-03-21T17:42:20.572Z,82.49
2023-03-21T17:46:20.600Z,82.50
2023-03-21T17:50:20.446Z,81.58
2023-03-21T17:54:20.390Z,77.66
2023-03-21T17:58:20.357Z,78.81
2023-03-21T18:02:20.336Z,83.84
2023-03-21T18:06:20.298Z,83.11
2023-03-21T18:10:20.379Z,86.20
2023-03-21T18:14:27.091Z,85.97
2023-03-21T18:18:21.309Z,87.50
2023-03-21T18:22:20.254Z,90.98
2023-03-21T18:26:22.827Z,90.88
2023-03-21T18:30:42.917Z,88.92
2023-03-21T18:34:22.060Z,87.48
2023-03-21T18:38:20.244Z,87.87
2023-03-21T18:42:23.595Z,90.23
2023-03-21T18:46:20.195Z,90.40
2023-03-21T18:50:20.137Z,90.66
2023-03-21T18:54:20.441Z,83.77
2023-03-21T18:58:20.013Z,88.89
2023-03-21T19:02:20.027Z,89.25
2023-03-21T19:06:19.966Z,88.03
2023-03-21T19:10:20.575Z,86.27
2023-03-21T19:14:19.969Z,87.63
2023-03-21T19:18:41.540Z,86.69
2023-03-21T19:22:21.137Z,87.45
2023-03-21T19:26:20.128Z,86.24
2023-03-21T19:30:23.080Z,88.54
2023-03-21T19:34:20.570Z,86.42
2023-03-21T19:38:20.119Z,86.79
2023-03-21T19:42:20.057Z,84.42
2023-03-21T19:46:20.066Z,83.34
2023-03-21T19:50:55.344Z,82.59
2023-03-21T19:54:20.942Z,84.85
2023-03-21T19:58:21.819Z,83.20
2023-03-21T20:02:34.911Z,80.08
2023-03-21T20:06:20.795Z,80.75
2023-03-21T20:10:19.854Z,77.25
2023-03-21T20:14:19.778Z,78.64
2023-03-21T20:18:19.689Z,78.64
2023-03-21T20:22:31.046Z,77.19
2023-03-21T20:26:20.615Z,80.49
2023-03-21T20:30:19.611Z,78.89
2023-03-21T20:34:19.537Z,79.34
2023-03-21T20:38:19.507Z,78.90
2023-03-21T20:42:19.830Z,79.46
2023-03-21T20:46:19.712Z,82.26
2023-03-21T20:50:19.466Z,79.90
2023-03-21T20:54:19.400Z,80.35
2023-03-21T20:58:43.712Z,75.84
2023-03-21T21:02:20.306Z,77.28
2023-03-21T21:06:19.302Z,79.66
2023-03-21T21:10:19.231Z,76.95
2023-03-21T21:14:19.211Z,80.73
2023-03-21T21:18:19.172Z,79.28
2023-03-21T21:22:19.107Z,75.34
2023-03-21T21:26:19.056Z,76.36
2023-03-21T21:30:19.032Z,76.54
2023-03-21T21:34:19.128Z,75.87
2023-03-21T21:38:18.998Z,74.71
2023-03-21T21:42:18.969Z,76.91
2023-03-21T21:46:18.931Z,72.45
2023-03-21T21:50:20.368Z,74.32
2023-03-21T21:54:18.888Z,75.69
2023-03-21T21:58:18.869Z,70.38
2023-03-21T22:02:19.103Z,73.49
2023-03-21T22:06:18.725Z,73.26
2023-03-21T22:10:18.698Z,72.41
2023-03-21T22:14:18.736Z,72.54
2023-03-21T22:18:18.628Z,70.35
2023-03-21T22:22:18.621Z,69.66
2023-03-21T22:26:18.679Z,66.57
2023-03-21T22:30:18.533Z,71.63
2023-03-21T22:34:18.482Z,71.33
2023-03-21T22:38:18.503Z,70.09
2023-03-21T22:42:18.425Z,67.51
2023-03-21T22:46:18.405Z,71.43
2023-03-21T22:50:18.324Z,71.54
2023-03-21T22:54:18.328Z,69.00
2023-03-21T22:58:18.266Z,67.55
2023-03-21T23:02:18.254Z,67.92
2023-03-21T23:06:18.212Z,68.98
2023-03-21T23:10:18.217Z,66.83
2023-03-21T23:14:18.157Z,68.07
2023-03-21T23:18:18.173Z,67.13
2023-03-21T23:22:18.096Z,67.74
2023-03-21T23:26:18.249Z,68.33
2023-03-21T23:30:17.979Z,67.96
2023-03-21T23:34:17.986Z,66.83
2023-03-21T23:38:17.884Z,66.02
2023-03-21T23:42:17.894Z,66.53
2023-03-21T23:46:17.993Z,64.57
2023-03-21T23:50:18.022Z,65.89
2023-03-21T23:54:18.182Z,63.67
2023-03-21T23:58:20.127Z,62.60
